Bracebridge, Canada
Current Conditions -  °F | °C
As of 8:01 AM on Tuesday 21 Oct 2014 (Local Time) from CYQA Reporting Station
Light Rain Light Rain  
Wind Chill:   Ceiling: 1100
Heat Index:   Visibility: 6mi
Dew Point:   Wind: 7mph
Humidity: 100%   Direction: 20°NNE
Pressure: 29.88"   Gusts: NA
Location:  45.05°N, 79.32°W
Report Text: CYQA 211201Z AUTO 02006KT 330V070 6SM -RA BR BKN011 OVC028 05/05 A2988 RMK SLP124
Loading
Personal Weather Stations






























Interactive Weather Map
Tropical Storm Tracking
New forecast layout! Learn more

10-Day Weather Forecast

Advertisements
Track Severe Weather on mobile